Time;durP1;ratioP1;P1;durP2;ratioP2;P2;SDS_P1;SDS_P2;PMS_P1;PMS_P2;Temp;Humidity;BMP_temperature;BMP_pressure;BME280_temperature;BME280_humidity;BME280_pressure;Samples;Min_cycle;Max_cycle;Signal;HPM_P1;HPM_P2
2023/12/03 00:00:53;;;;;;;17.67;7.15;;;;;;;0.20;62.73;100786.13;10362175;28;20052;-79
2023/12/03 00:05:55;;;;;;;18.90;8.02;;;;;;;0.15;62.55;100791.69;10361697;28;20088;-79
2023/12/03 00:10:57;;;;;;;13.80;6.35;;;;;;;0.15;62.57;100791.69;10344614;28;20045;-78
2023/12/03 00:15:59;;;;;;;19.67;7.60;;;;;;;0.12;62.04;100791.03;10327529;28;20042;-79
2023/12/03 00:21:00;;;;;;;15.63;7.40;;;;;;;0.11;61.96;100786.72;10358843;28;20127;-79
2023/12/03 00:26:02;;;;;;;14.48;6.70;;;;;;;0.04;62.79;100795.97;10361752;28;20144;-80
2023/12/03 00:31:04;;;;;;;15.55;7.45;;;;;;;-0.15;62.25;100799.78;10314717;28;20129;-79
2023/12/03 00:36:06;;;;;;;14.80;5.95;;;;;;;-0.27;62.70;100804.03;10328389;28;20081;-79
2023/12/03 00:41:07;;;;;;;14.15;6.00;;;;;;;-0.34;63.41;100809.78;10343154;28;20053;-79
2023/12/03 00:46:09;;;;;;;14.18;6.32;;;;;;;-0.27;62.68;100816.41;10343301;28;20033;-79
2023/12/03 00:51:12;;;;;;;16.00;5.05;;;;;;;-0.27;63.06;100813.75;10341990;28;20046;-79
2023/12/03 00:56:13;;;;;;;17.83;6.72;;;;;;;-0.28;63.14;100812.03;10361321;28;20046;-79
2023/12/03 01:01:15;;;;;;;15.77;6.18;;;;;;;-0.33;62.92;100811.50;10340805;28;20053;-79
2023/12/03 01:06:17;;;;;;;17.95;6.40;;;;;;;-0.43;63.44;100811.22;10328126;28;20045;-79
2023/12/03 01:11:18;;;;;;;14.70;6.43;;;;;;;-0.41;63.67;100827.81;10361557;28;20046;-79
2023/12/03 01:16:36;;;;;;;14.40;5.63;;;;;;;-0.38;63.18;100832.03;10340774;28;20052;-79
2023/12/03 01:21:38;;;;;;;16.70;6.70;;;;;;;-0.33;63.43;100841.38;10325629;28;20083;-79
2023/12/03 01:26:40;;;;;;;18.73;6.50;;;;;;;-0.28;62.88;100839.28;10332081;28;20076;-79
2023/12/03 01:31:41;;;;;;;16.80;6.82;;;;;;;-0.28;63.21;100847.22;10357597;28;20068;-79
2023/12/03 01:36:43;;;;;;;16.10;6.70;;;;;;;-0.25;63.30;100851.47;10360706;28;20049;-79
2023/12/03 01:41:45;;;;;;;15.45;5.55;;;;;;;-0.22;63.08;100857.44;10359350;28;20090;-79
2023/12/03 01:46:49;;;;;;;13.38;5.63;;;;;;;-0.19;63.14;100855.53;10342501;28;20112;-79
2023/12/03 01:51:50;;;;;;;16.73;6.63;;;;;;;-0.21;63.29;100861.75;10341161;28;20052;-79
2023/12/03 01:56:52;;;;;;;15.57;6.47;;;;;;;-0.21;63.42;100872.31;10361404;28;20041;-79
2023/12/03 02:01:54;;;;;;;13.65;5.50;;;;;;;-0.18;63.52;100870.44;10323467;28;20169;-79
2023/12/03 02:06:55;;;;;;;17.40;6.15;;;;;;;-0.23;63.81;100879.50;10329793;28;20136;-79
2023/12/03 02:11:57;;;;;;;15.60;6.22;;;;;;;-0.22;63.78;100881.22;10350153;28;20046;-78
2023/12/03 02:16:59;;;;;;;17.50;6.45;;;;;;;-0.30;63.58;100880.81;10349612;28;20042;-79
2023/12/03 02:22:01;;;;;;;16.65;6.65;;;;;;;-0.27;63.90;100870.06;10348626;28;20136;-79
2023/12/03 02:27:03;;;;;;;13.80;6.55;;;;;;;-0.33;64.29;100873.09;10332514;28;20044;-79
2023/12/03 02:32:04;;;;;;;13.70;6.47;;;;;;;-0.32;63.73;100872.13;10324689;28;20045;-80
2023/12/03 02:37:06;;;;;;;17.40;6.88;;;;;;;-0.36;63.86;100870.59;10333514;28;20396;-79
2023/12/03 02:42:07;;;;;;;17.08;8.15;;;;;;;-0.31;63.35;100873.84;10364998;28;20540;-79
2023/12/03 02:47:09;;;;;;;17.02;6.82;;;;;;;-0.33;64.25;100870.44;10347429;28;20042;-79
2023/12/03 02:52:11;;;;;;;18.40;7.70;;;;;;;-0.25;63.92;100862.91;10364539;28;20042;-79
2023/12/03 02:57:12;;;;;;;13.32;6.35;;;;;;;-0.27;64.31;100875.34;10344407;28;20494;-79
2023/12/03 03:02:14;;;;;;;16.95;6.72;;;;;;;-0.27;63.41;100874.50;10343028;28;20054;-79
2023/12/03 03:07:15;;;;;;;18.35;6.60;;;;;;;-0.26;64.01;100882.34;10363679;28;20050;-79
2023/12/03 03:12:17;;;;;;;20.25;7.45;;;;;;;-0.14;63.61;100893.94;10330359;28;20124;-79
2023/12/03 03:17:18;;;;;;;20.58;7.50;;;;;;;-0.05;63.20;100898.66;10365379;28;20550;-79
2023/12/03 03:22:20;;;;;;;19.42;8.45;;;;;;;-0.06;63.02;100896.97;10345423;28;20050;-79
2023/12/03 03:27:22;;;;;;;19.20;7.35;;;;;;;-0.04;63.57;100897.72;10319627;28;20450;-79
2023/12/03 03:32:23;;;;;;;16.52;6.57;;;;;;;0.02;63.96;100888.56;10362722;28;20069;-79
2023/12/03 03:37:25;;;;;;;19.20;6.80;;;;;;;0.03;63.27;100892.06;10350285;28;20413;-79
2023/12/03 03:42:27;;;;;;;22.75;6.95;;;;;;;0.05;63.40;100906.88;10362096;28;20053;-78
2023/12/03 03:47:28;;;;;;;18.13;7.25;;;;;;;0.02;63.71;100915.00;10345063;28;20092;-79
2023/12/03 03:52:31;;;;;;;16.08;7.30;;;;;;;0.03;63.40;100919.34;10362386;28;20643;-79
2023/12/03 03:57:32;;;;;;;21.58;8.20;;;;;;;-0.03;63.44;100915.25;10344896;28;20405;-79
2023/12/03 04:02:34;;;;;;;17.98;6.63;;;;;;;0.02;63.31;100916.78;10328164;28;20053;-79
2023/12/03 04:07:36;;;;;;;15.27;6.93;;;;;;;-0.10;63.32;100924.53;10327386;28;20045;-79
2023/12/03 04:12:37;;;;;;;16.88;7.20;;;;;;;-0.15;63.56;100916.03;10344724;28;20176;-79
2023/12/03 04:17:39;;;;;;;22.52;8.82;;;;;;;-0.08;63.66;100916.47;10328509;28;20046;-79
2023/12/03 04:22:41;;;;;;;21.20;7.90;;;;;;;-0.17;64.02;100920.56;10328630;28;20050;-76
2023/12/03 04:27:43;;;;;;;21.20;7.97;;;;;;;-0.20;63.54;100928.66;10355776;28;20500;-76
2023/12/03 04:32:44;;;;;;;21.40;7.90;;;;;;;-0.12;63.23;100929.06;10356237;28;20531;-76
2023/12/03 04:37:46;;;;;;;19.80;8.57;;;;;;;-0.17;63.53;100943.47;10371135;28;20054;-77
2023/12/03 04:42:48;;;;;;;19.02;8.35;;;;;;;-0.20;63.79;100941.84;10337336;28;20057;-77
2023/12/03 04:47:49;;;;;;;22.77;9.30;;;;;;;-0.23;63.78;100945.53;10347235;28;20044;-76
2023/12/03 04:52:51;;;;;;;22.08;8.15;;;;;;;-0.22;64.06;100944.63;10370346;28;20046;-76
2023/12/03 04:57:53;;;;;;;18.77;8.30;;;;;;;-0.30;64.25;100951.28;10354365;28;20140;-76
2023/12/03 05:02:54;;;;;;;18.15;7.88;;;;;;;-0.36;64.28;100954.28;10354798;28;20100;-76
2023/12/03 05:07:56;;;;;;;24.15;8.15;;;;;;;-0.33;64.01;100949.69;10356253;28;20178;-78
2023/12/03 05:12:58;;;;;;;21.77;8.63;;;;;;;-0.31;64.69;100950.44;10378122;28;20124;-77
2023/12/03 05:17:59;;;;;;;23.05;8.73;;;;;;;-0.35;64.11;100961.28;10362929;28;20041;-76
2023/12/03 05:23:01;;;;;;;24.77;10.10;;;;;;;-0.42;64.71;100948.41;10376400;28;20096;-75
2023/12/03 05:28:02;;;;;;;23.95;8.48;;;;;;;-0.44;64.57;100957.38;10377530;28;20125;-76
2023/12/03 05:33:05;;;;;;;26.90;9.27;;;;;;;-0.63;64.79;100970.81;10380662;28;20037;-77
2023/12/03 05:38:07;;;;;;;28.08;10.10;;;;;;;-0.76;64.78;100968.03;10389406;28;20156;-77
2023/12/03 05:43:08;;;;;;;26.63;10.07;;;;;;;-0.82;65.08;100971.84;10373584;28;20049;-77
2023/12/03 05:48:10;;;;;;;25.38;8.80;;;;;;;-0.90;65.00;100997.00;10389387;28;20088;-77
2023/12/03 05:53:12;;;;;;;23.23;9.15;;;;;;;-0.96;65.06;100994.69;10353731;28;20064;-77
2023/12/03 05:58:14;;;;;;;27.35;9.48;;;;;;;-1.01;64.95;101011.63;10366576;28;20045;-77
2023/12/03 06:03:16;;;;;;;25.30;9.48;;;;;;;-1.08;65.28;101012.91;10367001;28;20493;-77
2023/12/03 06:08:17;;;;;;;27.85;10.23;;;;;;;-1.08;65.63;101020.81;10367171;28;20074;-77
2023/12/03 06:13:19;;;;;;;24.88;9.00;;;;;;;-1.12;65.52;101008.72;10364381;28;20061;-77
2023/12/03 06:18:21;;;;;;;23.40;9.38;;;;;;;-1.13;65.73;101009.66;10369695;28;20042;-77
2023/12/03 06:23:23;;;;;;;29.10;9.18;;;;;;;-1.15;65.86;101003.63;10369275;28;20060;-77
2023/12/03 06:28:25;;;;;;;27.17;9.20;;;;;;;-1.24;66.29;101002.34;10351920;28;20042;-78
2023/12/03 06:33:26;;;;;;;29.38;9.93;;;;;;;-1.23;66.15;100997.91;10385023;28;20042;-77
2023/12/03 06:38:29;;;;;;;31.02;10.63;;;;;;;-1.18;65.76;101016.13;10385413;28;20037;-77
2023/12/03 06:43:31;;;;;;;29.92;10.68;;;;;;;-1.18;65.93;101016.13;10366901;28;20049;-78
2023/12/03 06:48:33;;;;;;;24.77;9.77;;;;;;;-1.12;65.97;101021.94;10383331;28;20611;-77
2023/12/03 06:53:35;;;;;;;36.33;12.80;;;;;;;-1.09;65.83;101024.38;10361196;28;20038;-78
2023/12/03 06:58:37;;;;;;;26.42;10.98;;;;;;;-1.09;66.09;101032.28;10363110;28;20085;-78
2023/12/03 07:03:38;;;;;;;32.97;10.55;;;;;;;-1.04;66.42;101027.63;10341100;28;20060;-81
2023/12/03 07:08:40;;;;;;;26.95;8.75;;;;;;;-0.93;66.07;101028.81;10376896;28;20038;-82
2023/12/03 07:13:43;;;;;;;30.85;10.57;;;;;;;-1.01;66.02;101034.50;10358696;28;20124;-82
2023/12/03 07:18:44;;;;;;;30.75;10.60;;;;;;;-0.98;65.99;101054.63;10359958;28;20078;-83
2023/12/03 07:23:46;;;;;;;28.60;10.27;;;;;;;-0.98;66.30;101075.72;10359127;28;20758;-83
2023/12/03 07:28:48;;;;;;;31.75;11.52;;;;;;;-0.96;66.26;101085.25;10376268;28;20053;-82
2023/12/03 07:33:49;;;;;;;31.73;10.88;;;;;;;-0.92;66.13;101085.94;10352917;28;20058;-83
2023/12/03 07:38:51;;;;;;;22.70;9.05;;;;;;;-0.91;66.82;101085.88;10362485;28;20030;-84
2023/12/03 07:43:53;;;;;;;28.13;9.90;;;;;;;-0.88;66.66;101090.13;10363714;28;20133;-86
2023/12/03 07:48:55;;;;;;;36.05;11.75;;;;;;;-0.81;66.40;101088.81;10357018;28;20499;-82
2023/12/03 07:53:56;;;;;;;33.95;11.55;;;;;;;-0.75;66.39;101111.41;10355608;28;20050;-81
2023/12/03 07:58:58;;;;;;;30.73;10.60;;;;;;;-0.63;66.21;101111.59;10363893;28;20436;-80
2023/12/03 08:04:01;;;;;;;32.03;10.65;;;;;;;-0.63;65.81;101108.94;10371146;28;20108;-83
2023/12/03 08:09:02;;;;;;;31.35;9.98;;;;;;;-0.62;66.48;101112.44;10372927;28;20069;-84
2023/12/03 08:14:04;;;;;;;37.63;12.50;;;;;;;-0.62;65.85;101113.28;10370388;28;20437;-80
2023/12/03 08:19:06;;;;;;;33.28;10.90;;;;;;;-0.58;66.47;101115.75;10373005;28;20040;-82
2023/12/03 08:24:07;;;;;;;32.13;10.00;;;;;;;-0.46;66.00;101121.19;10342582;28;20133;-82
2023/12/03 08:29:10;;;;;;;35.72;10.13;;;;;;;-0.32;65.30;101123.06;10361329;28;20049;-85
2023/12/03 08:34:11;;;;;;;32.80;10.80;;;;;;;-0.23;65.66;101130.47;10355824;28;20046;-82
2023/12/03 08:39:14;;;;;;;33.72;10.63;;;;;;;-0.11;65.72;101133.34;10351599;28;20049;-82
2023/12/03 08:44:15;;;;;;;29.80;8.75;;;;;;;0.03;65.65;101135.19;10341802;28;20493;-81
2023/12/03 08:49:17;;;;;;;34.05;10.93;;;;;;;0.16;66.07;101115.91;10334035;28;20040;-82
2023/12/03 08:54:19;;;;;;;27.70;9.40;;;;;;;0.33;65.23;101114.03;10352449;28;20081;-81
2023/12/03 08:59:23;;;;;;;27.73;10.63;;;;;;;0.41;65.12;101127.66;10352378;28;20484;-82
2023/12/03 09:04:25;;;;;;;27.58;10.60;;;;;;;0.25;65.48;101119.78;10359370;28;20106;-82
2023/12/03 09:09:26;;;;;;;30.75;9.73;;;;;;;0.34;64.98;101128.97;10369424;28;20049;-83
2023/12/03 09:14:28;;;;;;;31.08;10.50;;;;;;;0.55;65.21;101134.75;10335296;28;20041;-82
2023/12/03 09:19:30;;;;;;;22.75;8.38;;;;;;;0.72;64.84;101129.31;10384214;28;20113;-83
2023/12/03 09:24:31;;;;;;;34.90;9.80;;;;;;;0.80;65.13;101128.84;10365361;28;20145;-82
2023/12/03 09:29:33;;;;;;;31.67;10.55;;;;;;;0.95;64.11;101125.25;10371938;28;20049;-83
2023/12/03 09:34:35;;;;;;;31.00;10.55;;;;;;;1.07;64.15;101133.41;10351141;28;20046;-83
2023/12/03 09:39:36;;;;;;;30.40;11.20;;;;;;;1.15;64.25;101136.41;10387412;28;20045;-82
2023/12/03 09:44:53;;;;;;;29.83;10.40;;;;;;;1.12;64.08;101131.28;10370691;28;20081;-83
2023/12/03 09:49:57;;;;;;;31.25;9.27;;;;;;;1.05;64.64;101127.31;10369505;28;20077;-83
2023/12/03 09:54:58;;;;;;;31.23;11.13;;;;;;;1.00;64.17;101127.63;10385793;28;20049;-83
2023/12/03 10:00:07;;;;;;;29.27;10.10;;;;;;;0.99;64.99;101129.41;10385240;28;20044;-83
2023/12/03 10:05:09;;;;;;;26.73;8.93;;;;;;;1.03;64.82;101131.84;10356260;28;20084;-82
2023/12/03 10:10:13;;;;;;;27.77;10.32;;;;;;;1.05;64.31;101128.19;10355971;28;20041;-83
2023/12/03 10:15:15;;;;;;;24.98;9.85;;;;;;;1.11;64.38;101119.03;10362737;28;20076;-82
2023/12/03 10:20:24;;;;;;;28.85;10.75;;;;;;;1.14;64.70;101122.31;10340059;28;20519;-81
2023/12/03 10:25:30;;;;;;;28.27;10.77;;;;;;;1.15;63.97;101113.44;10359201;28;20069;-82
2023/12/03 10:30:32;;;;;;;22.38;8.82;;;;;;;1.15;64.14;101124.03;10372558;28;20508;-83
2023/12/03 10:35:35;;;;;;;26.90;9.23;;;;;;;1.33;64.19;101106.13;10371987;28;20042;-81
2023/12/03 10:40:37;;;;;;;22.63;8.50;;;;;;;1.52;63.92;101108.44;10347253;28;20050;-82
2023/12/03 10:45:39;;;;;;;28.77;10.18;;;;;;;1.50;63.78;101107.69;10351363;28;20424;-82
2023/12/03 10:50:45;;;;;;;34.10;9.85;;;;;;;1.53;63.24;101104.00;10352152;28;20468;-83
2023/12/03 10:55:48;;;;;;;26.08;9.18;;;;;;;1.65;63.28;101097.88;10349722;28;20082;-83
2023/12/03 11:00:58;;;;;;;28.10;9.85;;;;;;;1.62;63.33;101103.41;10353313;28;20038;-83
2023/12/03 11:06:04;;;;;;;24.80;9.77;;;;;;;1.66;63.31;101096.94;10346246;28;20484;-83
2023/12/03 11:11:08;;;;;;;25.95;9.80;;;;;;;1.76;62.99;101098.03;10327159;28;20038;-82
2023/12/03 11:16:11;;;;;;;25.83;9.02;;;;;;;1.81;63.21;101096.88;10366484;28;20038;-83
2023/12/03 11:21:45;;;;;;;22.83;8.63;;;;;;;1.95;63.22;101097.66;10334992;28;20129;-83
2023/12/03 11:26:47;;;;;;;34.17;9.27;;;;;;;1.96;62.93;101096.72;10346443;28;20102;-82
2023/12/03 11:31:48;;;;;;;22.85;8.77;;;;;;;2.03;63.42;101091.00;10367844;28;20100;-82
2023/12/03 11:36:50;;;;;;;24.38;8.95;;;;;;;2.10;62.59;101090.50;10327843;28;20042;-82
2023/12/03 11:41:58;;;;;;;26.92;9.45;;;;;;;2.21;62.12;101083.63;10363855;28;20124;-82
2023/12/03 11:47:01;;;;;;;30.90;11.02;;;;;;;2.14;62.49;101084.03;10331591;28;20041;-82
2023/12/03 11:52:04;;;;;;;31.10;10.50;;;;;;;2.25;62.36;101082.44;10347743;28;20129;-82
2023/12/03 11:57:13;;;;;;;26.83;10.15;;;;;;;2.29;62.54;101078.63;10340932;28;20050;-82
2023/12/03 12:02:15;;;;;;;29.40;10.13;;;;;;;2.52;61.72;101067.28;10339722;28;20130;-82
2023/12/03 12:07:18;;;;;;;31.20;10.52;;;;;;;2.61;61.72;101059.66;10340378;28;20115;-82
2023/12/03 12:12:20;;;;;;;29.25;11.50;;;;;;;2.66;61.96;101060.19;10365305;28;20115;-82
2023/12/03 12:17:21;;;;;;;24.95;9.43;;;;;;;2.98;61.03;101039.31;10346393;28;20369;-83
2023/12/03 12:22:23;;;;;;;27.38;9.55;;;;;;;3.10;61.54;101049.06;10344100;28;20145;-82
2023/12/03 12:27:26;;;;;;;33.10;10.57;;;;;;;3.06;61.12;101039.63;10364924;28;20516;-82
2023/12/03 12:32:27;;;;;;;29.73;10.63;;;;;;;3.22;61.34;101046.47;10345737;28;20050;-82
2023/12/03 12:37:34;;;;;;;25.98;10.57;;;;;;;3.15;61.30;101054.03;10353702;28;20050;-82
2023/12/03 12:42:42;;;;;;;26.25;11.68;;;;;;;3.17;61.13;101046.81;10354566;28;20069;-82
2023/12/03 12:47:44;;;;;;;24.60;9.60;;;;;;;3.13;61.02;101054.16;10342009;28;20046;-82
2023/12/03 12:52:55;;;;;;;25.15;10.82;;;;;;;3.22;60.95;101049.13;10343473;28;20049;-82
2023/12/03 12:57:58;;;;;;;25.10;9.35;;;;;;;3.14;60.94;101045.25;10336095;28;20124;-82
2023/12/03 13:03:00;;;;;;;24.30;9.70;;;;;;;3.06;61.11;101050.25;10362665;28;20058;-82
2023/12/03 13:08:03;;;;;;;26.13;9.70;;;;;;;3.15;60.92;101044.25;10344542;28;20046;-82
2023/12/03 13:13:05;;;;;;;28.83;9.70;;;;;;;3.21;60.32;101042.13;10363011;28;20045;-82
2023/12/03 13:18:06;;;;;;;27.20;9.70;;;;;;;3.16;60.63;101029.19;10362431;28;20397;-80
2023/12/03 13:23:20;;;;;;;24.40;9.88;;;;;;;3.13;60.77;101019.63;10335439;28;20388;-80
2023/12/03 13:28:21;;;;;;;29.10;10.07;;;;;;;3.02;60.96;101018.69;10327779;28;20078;-80
2023/12/03 13:33:23;;;;;;;24.02;8.77;;;;;;;3.06;60.35;101017.50;10346093;28;20115;-80
2023/12/03 13:38:25;;;;;;;28.10;10.35;;;;;;;3.15;60.57;101006.22;10345641;28;20041;-80
2023/12/03 13:43:27;;;;;;;22.52;9.45;;;;;;;3.21;60.27;101004.94;10363586;28;20054;-81
2023/12/03 13:48:28;;;;;;;20.23;7.32;;;;;;;3.14;60.25;101001.88;10350306;28;20107;-84
2023/12/03 13:53:30;;;;;;;26.38;8.80;;;;;;;3.21;59.83;101003.13;10350232;28;20061;-81
2023/12/03 13:58:32;;;;;;;27.80;10.20;;;;;;;3.42;59.62;100983.94;10356245;28;20089;-82
2023/12/03 14:03:34;;;;;;;22.77;10.20;;;;;;;3.49;59.31;100983.31;10377122;28;20042;-82
2023/12/03 14:08:36;;;;;;;22.80;9.65;;;;;;;3.54;59.51;100990.97;10351292;28;20136;-82
2023/12/03 14:13:37;;;;;;;20.42;8.80;;;;;;;3.43;59.50;100990.91;10342658;28;20132;-82
2023/12/03 14:18:41;;;;;;;25.50;9.60;;;;;;;3.33;59.60;100999.56;10359226;28;20073;-82
2023/12/03 14:23:43;;;;;;;27.00;10.63;;;;;;;3.26;59.56;100993.03;10346284;28;20046;-82
2023/12/03 14:28:45;;;;;;;23.25;8.35;;;;;;;3.29;59.30;100995.44;10356717;28;20030;-83
2023/12/03 14:33:47;;;;;;;30.35;11.48;;;;;;;3.27;59.29;100989.38;10376838;28;20105;-87
2023/12/03 14:38:48;;;;;;;21.23;8.02;;;;;;;3.21;59.64;100984.53;10366792;28;20053;-83
2023/12/03 14:43:50;;;;;;;25.77;10.18;;;;;;;3.15;59.55;100993.78;10361937;28;20076;-86
2023/12/03 14:48:52;;;;;;;25.85;9.75;;;;;;;3.11;59.61;100983.50;10338759;28;20073;-81
2023/12/03 14:53:54;;;;;;;26.65;9.25;;;;;;;3.08;59.24;100995.22;10315133;28;20124;-85
2023/12/03 14:58:57;;;;;;;23.58;9.32;;;;;;;3.04;59.27;100992.88;10352666;28;20081;-86
2023/12/03 15:04:00;;;;;;;22.60;8.85;;;;;;;2.82;59.92;101001.53;10350853;28;20065;-83
2023/12/03 15:09:01;;;;;;;23.70;8.55;;;;;;;2.62;59.35;101009.13;10348280;28;20049;-84
2023/12/03 15:14:03;;;;;;;25.67;8.25;;;;;;;2.46;60.04;101014.66;10352805;28;20125;-87
2023/12/03 15:19:05;;;;;;;25.40;9.45;;;;;;;2.35;59.70;101007.47;10359795;28;20045;-86
2023/12/03 15:24:08;;;;;;;25.35;8.43;;;;;;;2.24;59.85;101015.31;10361558;28;20615;-85
2023/12/03 15:29:10;;;;;;;27.35;8.80;;;;;;;2.07;60.29;101007.66;10323300;28;20394;-84
2023/12/03 15:34:12;;;;;;;22.02;8.75;;;;;;;1.94;60.52;101013.78;10332782;28;20042;-87
2023/12/03 15:39:13;;;;;;;24.80;9.13;;;;;;;1.85;60.19;101006.44;10330268;28;20043;-87
2023/12/03 15:44:15;;;;;;;21.60;8.05;;;;;;;1.77;59.97;101006.13;10328862;28;20574;-81
2023/12/03 15:49:16;;;;;;;22.08;8.55;;;;;;;1.69;60.05;101003.97;10320671;28;20050;-86
2023/12/03 15:54:20;;;;;;;23.13;8.45;;;;;;;1.65;59.97;101004.31;10327258;28;20050;-83
2023/12/03 15:59:22;;;;;;;29.15;8.88;;;;;;;1.58;60.23;101009.16;10336285;28;20092;-84
2023/12/03 16:04:24;;;;;;;24.17;9.00;;;;;;;1.49;60.65;101017.72;10326684;28;20295;-83
2023/12/03 16:09:25;;;;;;;23.13;8.88;;;;;;;1.45;60.35;101018.88;10323618;28;20043;-86
2023/12/03 16:14:27;;;;;;;20.65;8.57;;;;;;;1.43;60.05;101026.06;10307131;28;20494;-81
2023/12/03 16:19:29;;;;;;;23.75;9.07;;;;;;;1.28;60.54;101014.66;10326611;28;20039;-80
2023/12/03 16:24:31;;;;;;;22.00;8.23;;;;;;;1.22;61.08;101007.97;10331510;28;20081;-89
2023/12/03 16:29:33;;;;;;;23.38;8.93;;;;;;;1.11;60.91;101013.97;10344143;28;20026;-87
2023/12/03 16:34:35;;;;;;;25.58;8.88;;;;;;;1.10;60.94;101022.84;10255118;23;20471;-57
2023/12/03 16:39:37;;;;;;;34.05;9.55;;;;;;;1.07;61.10;101004.53;10224426;28;20126;-57
2023/12/03 16:44:38;;;;;;;26.38;9.43;;;;;;;1.04;60.84;100998.56;10252947;28;20074;-57
2023/12/03 16:49:42;;;;;;;25.50;8.52;;;;;;;0.97;60.73;100991.03;10245957;28;20138;-57
2023/12/03 16:54:44;;;;;;;33.10;9.13;;;;;;;0.90;61.00;101002.94;10249048;28;20047;-57
2023/12/03 16:59:46;;;;;;;26.00;10.48;;;;;;;0.83;60.74;101006.06;10227043;28;20482;-57
2023/12/03 17:04:47;;;;;;;29.63;10.90;;;;;;;0.78;60.70;101006.38;10243969;28;20047;-58
2023/12/03 17:09:49;;;;;;;27.88;10.15;;;;;;;0.84;61.51;100999.84;10243103;28;20067;-58
2023/12/03 17:14:51;;;;;;;24.70;9.98;;;;;;;0.86;60.58;100992.66;10251542;28;20043;-58
2023/12/03 17:19:52;;;;;;;24.63;9.93;;;;;;;0.83;60.55;100995.47;10237414;28;20134;-58
2023/12/03 17:24:54;;;;;;;26.33;10.65;;;;;;;0.74;61.19;101004.88;10247151;28;20070;-58
2023/12/03 17:29:56;;;;;;;28.98;10.68;;;;;;;0.61;61.45;101012.69;10237871;28;20063;-58
2023/12/03 17:34:58;;;;;;;26.08;10.57;;;;;;;0.55;61.90;101013.09;10253380;28;20054;-58
2023/12/03 17:40:00;;;;;;;25.42;9.45;;;;;;;0.58;61.73;101013.75;10253760;28;20073;-58
2023/12/03 17:45:01;;;;;;;29.48;10.75;;;;;;;0.57;61.56;100997.97;10255321;28;20055;-59
2023/12/03 17:50:03;;;;;;;38.15;13.35;;;;;;;0.51;62.21;100985.13;10260905;28;20411;-59
2023/12/03 17:55:05;;;;;;;33.05;12.90;;;;;;;0.52;62.18;100981.56;10261439;28;20047;-58
2023/12/03 18:00:07;;;;;;;42.50;14.25;;;;;;;0.56;61.65;100969.84;10234050;28;20047;-58
2023/12/03 18:05:09;;;;;;;35.63;13.15;;;;;;;0.63;61.38;100976.41;10267170;28;20059;-59
2023/12/03 18:10:12;;;;;;;33.85;12.02;;;;;;;0.61;61.63;100975.66;10275295;28;20114;-59
2023/12/03 18:15:14;;;;;;;29.48;11.88;;;;;;;0.67;62.15;100982.38;10255598;28;20051;-58
2023/12/03 18:20:16;;;;;;;33.67;12.48;;;;;;;0.69;61.78;100978.72;10250306;28;20055;-58
2023/12/03 18:25:17;;;;;;;34.90;13.30;;;;;;;0.66;62.22;100973.59;10246447;28;20180;-57
2023/12/03 18:30:19;;;;;;;37.60;13.80;;;;;;;0.71;62.25;100968.88;10240401;28;20051;-58
2023/12/03 18:35:20;;;;;;;39.05;14.45;;;;;;;0.74;62.52;100960.72;10238744;28;20055;-58
2023/12/03 18:40:22;;;;;;;33.05;12.85;;;;;;;0.79;62.59;100963.09;10234877;28;20054;-58
2023/12/03 18:45:25;;;;;;;46.05;15.27;;;;;;;0.82;62.59;100964.69;10235993;28;20053;-57
2023/12/03 18:50:27;;;;;;;39.47;14.30;;;;;;;0.82;61.99;100957.59;10235997;28;20051;-58
2023/12/03 18:55:30;;;;;;;47.60;15.65;;;;;;;0.83;61.82;100961.94;10233959;28;20047;-58
2023/12/03 19:00:32;;;;;;;43.05;16.30;;;;;;;0.81;62.07;100958.56;10237614;28;20067;-57
2023/12/03 19:05:34;;;;;;;39.38;14.85;;;;;;;0.74;62.03;100957.22;10226386;28;20122;-58
2023/12/03 19:10:39;;;;;;;43.63;15.63;;;;;;;0.68;62.72;100954.97;10238169;28;20047;-57
2023/12/03 19:15:42;;;;;;;40.28;15.70;;;;;;;0.63;62.79;100949.13;10238070;28;20062;-58
2023/12/03 19:20:43;;;;;;;39.25;16.23;;;;;;;0.60;62.66;100950.19;10235211;28;20049;-58
2023/12/03 19:25:45;;;;;;;39.92;13.18;;;;;;;0.55;62.97;100933.72;10233027;28;20043;-58
2023/12/03 19:30:46;;;;;;;36.50;13.45;;;;;;;0.52;63.00;100942.72;10228275;28;20047;-57
2023/12/03 19:35:48;;;;;;;31.15;11.65;;;;;;;0.49;62.79;100929.69;10225597;28;20047;-57
2023/12/03 19:40:49;;;;;;;32.42;10.80;;;;;;;0.45;62.85;100922.03;10229352;28;20053;-57
2023/12/03 19:45:51;;;;;;;33.63;12.55;;;;;;;0.44;63.29;100913.28;10227649;28;20055;-57
2023/12/03 19:50:53;;;;;;;28.08;10.23;;;;;;;0.50;63.39;100902.28;10226223;28;20054;-57
2023/12/03 19:55:54;;;;;;;29.25;11.95;;;;;;;0.56;62.85;100893.13;10231644;28;20067;-57
2023/12/03 20:00:56;;;;;;;28.25;10.85;;;;;;;0.70;63.23;100881.66;10235270;28;20043;-57
2023/12/03 20:05:57;;;;;;;32.33;11.27;;;;;;;0.83;62.55;100873.75;10234579;28;20050;-57
2023/12/03 20:10:59;;;;;;;25.63;9.55;;;;;;;0.91;62.50;100864.38;10232349;28;20432;-57
2023/12/03 20:16:01;;;;;;;23.25;8.85;;;;;;;0.96;63.13;100854.31;10229438;28;20463;-57
2023/12/03 20:21:06;;;;;;;25.40;10.02;;;;;;;1.02;62.72;100849.59;10244521;28;21121;-56
2023/12/03 20:26:07;;;;;;;22.15;8.68;;;;;;;1.07;62.83;100845.69;10230567;28;20070;-57
2023/12/03 20:31:09;;;;;;;24.55;9.20;;;;;;;1.10;63.01;100847.28;10232929;28;20122;-57
2023/12/03 20:36:11;;;;;;;19.88;8.70;;;;;;;1.11;63.42;100841.88;10234143;28;20039;-58
2023/12/03 20:41:22;;;;;;;21.73;9.32;;;;;;;1.11;62.62;100833.09;10227920;28;20513;-56
2023/12/03 20:46:25;;;;;;;21.58;9.13;;;;;;;1.09;63.28;100822.59;10225062;28;20051;-57
2023/12/03 20:51:27;;;;;;;27.33;11.27;;;;;;;1.06;63.54;100828.09;10225136;28;20047;-57
2023/12/03 20:56:29;;;;;;;22.67;9.00;;;;;;;1.01;63.09;100830.22;10223725;28;20539;-57
2023/12/03 21:01:30;;;;;;;28.92;10.88;;;;;;;1.01;62.73;100824.03;10233835;28;20510;-57
2023/12/03 21:06:32;;;;;;;25.73;9.85;;;;;;;1.09;62.57;100809.38;10235505;28;20054;-58
2023/12/03 21:11:34;;;;;;;26.75;9.35;;;;;;;1.18;63.03;100802.59;10230494;28;20059;-57
2023/12/03 21:16:35;;;;;;;21.73;9.20;;;;;;;1.16;62.89;100797.38;10233159;28;20134;-58
2023/12/03 21:21:36;;;;;;;22.42;9.73;;;;;;;1.20;63.37;100792.75;10230221;28;20529;-57
2023/12/03 21:26:38;;;;;;;27.65;9.68;;;;;;;1.24;62.75;100794.22;10232245;28;20573;-58
2023/12/03 21:31:39;;;;;;;23.55;8.85;;;;;;;1.29;62.45;100786.81;10231293;28;20394;-57
2023/12/03 21:36:41;;;;;;;23.42;9.25;;;;;;;1.31;63.33;100789.38;10233019;28;20055;-57
2023/12/03 21:41:42;;;;;;;21.38;8.30;;;;;;;1.33;62.53;100790.13;10229213;28;20074;-57
2023/12/03 21:46:44;;;;;;;21.10;9.20;;;;;;;1.42;62.59;100773.56;10235738;28;20059;-61
2023/12/03 21:51:45;;;;;;;22.90;9.50;;;;;;;1.45;62.33;100757.47;10234480;28;20047;-59
2023/12/03 21:56:47;;;;;;;22.42;9.02;;;;;;;1.44;62.60;100744.31;10230597;28;20078;-60
2023/12/03 22:01:48;;;;;;;20.67;8.63;;;;;;;1.47;62.53;100746.78;10235152;28;20521;-59
2023/12/03 22:06:50;;;;;;;18.15;7.85;;;;;;;1.53;62.61;100759.59;10224220;28;20051;-59
2023/12/03 22:11:51;;;;;;;19.25;8.27;;;;;;;1.52;62.81;100768.47;10233702;28;20075;-58
2023/12/03 22:16:52;;;;;;;25.70;9.35;;;;;;;1.55;62.92;100758.50;10239007;28;20046;-59
2023/12/03 22:21:54;;;;;;;21.20;8.75;;;;;;;1.54;62.82;100759.47;10242152;28;20390;-59
2023/12/03 22:26:55;;;;;;;18.63;8.52;;;;;;;1.52;62.57;100752.56;10241367;28;20102;-59
2023/12/03 22:31:57;;;;;;;19.50;8.50;;;;;;;1.58;62.93;100757.47;10239465;28;20045;-59
2023/12/03 22:36:58;;;;;;;19.67;7.72;;;;;;;1.65;62.34;100755.22;10240742;28;20054;-59
2023/12/03 22:42:00;;;;;;;22.60;8.10;;;;;;;1.64;62.41;100745.56;10239622;28;20054;-59
2023/12/03 22:47:02;;;;;;;22.73;8.73;;;;;;;1.65;62.56;100745.47;10243340;28;20051;-59
2023/12/03 22:52:04;;;;;;;19.92;8.23;;;;;;;1.63;62.87;100735.94;10236899;28;20454;-60
2023/12/03 22:57:05;;;;;;;20.00;7.85;;;;;;;1.62;62.95;100728.94;10236993;28;20069;-59